Time;durP1;ratioP1;P1;durP2;ratioP2;P2;SDS_P1;SDS_P2;PMS_P1;PMS_P2;Temp;Humidity;BMP_temperature;BMP_pressure;BME280_temperature;BME280_humidity;BME280_pressure;Samples;Min_cycle;Max_cycle;Signal;HPM_P1;HPM_P2
2022/03/03 00:01:33;;;;;;;34.78;25.05;;;1.80;1.00;;;;;;4953273;29;20267;-85
2022/03/03 00:03:59;;;;;;;36.42;24.08;;;1.40;1.00;;;;;;4953320;29;20231;-85
2022/03/03 00:06:27;;;;;;;41.72;24.80;;;1.30;30.50;;;;;;4945406;29;20211;-86
2022/03/03 00:08:54;;;;;;;38.42;24.92;;;1.30;20.20;;;;;;4944752;29;20255;-84
2022/03/03 00:11:20;;;;;;;37.60;25.48;;;1.40;1.00;;;;;;4945811;29;20234;-84
2022/03/03 00:13:47;;;;;;;35.53;24.60;;;1.50;1.00;;;;;;4951616;29;20215;-85
2022/03/03 00:16:13;;;;;;;35.42;24.83;;;1.70;99.90;;;;;;4952828;29;20206;-85
2022/03/03 00:18:40;;;;;;;40.55;25.13;;;1.80;99.90;;;;;;4954613;29;20211;-85
2022/03/03 00:21:07;;;;;;;40.92;24.92;;;1.70;99.90;;;;;;4955951;28;20222;-85
2022/03/03 00:23:35;;;;;;;35.88;24.38;;;1.80;99.90;;;;;;4960214;28;20208;-84
2022/03/03 00:26:01;;;;;;;40.00;24.13;;;1.90;99.90;;;;;;4960482;28;20203;-85
2022/03/03 00:28:28;;;;;;;34.30;24.50;;;1.90;99.90;;;;;;4962022;28;20210;-85
2022/03/03 00:30:55;;;;;;;39.80;23.95;;;1.90;1.00;;;;;;4957904;29;20223;-85
2022/03/03 00:33:21;;;;;;;41.30;22.60;;;1.70;1.00;;;;;;4956589;29;20230;-85
2022/03/03 00:35:48;;;;;;;41.75;23.98;;;1.70;1.00;;;;;;4956835;29;20214;-84
2022/03/03 00:38:14;;;;;;;44.63;24.25;;;1.60;29.30;;;;;;4956239;29;20207;-85
2022/03/03 00:40:42;;;;;;;40.58;23.00;;;1.60;96.10;;;;;;4958518;28;20215;-84
2022/03/03 00:43:09;;;;;;;40.85;24.55;;;1.80;1.00;;;;;;4962469;28;20230;-84
2022/03/03 00:45:37;;;;;;;37.08;25.02;;;1.80;1.00;;;;;;4955065;29;20227;-86
2022/03/03 00:48:05;;;;;;;35.40;23.02;;;1.70;1.00;;;;;;4955281;29;20239;-84
2022/03/03 00:50:33;;;;;;;42.50;24.90;;;1.60;1.00;;;;;;4954727;29;20239;-84
2022/03/03 00:52:59;;;;;;;37.10;23.23;;;1.60;81.20;;;;;;4957186;29;20245;-83
2022/03/03 00:55:26;;;;;;;44.63;26.40;;;1.60;99.90;;;;;;4957148;29;20231;-83
2022/03/03 00:57:54;;;;;;;37.30;25.23;;;1.60;3.70;;;;;;4948940;29;20207;-86
2022/03/03 01:00:21;;;;;;;40.13;23.02;;;1.40;1.00;;;;;;4948397;29;20207;-84
2022/03/03 01:02:49;;;;;;;38.38;24.73;;;1.40;1.00;;;;;;4949789;29;20242;-84
2022/03/03 01:05:15;;;;;;;38.47;22.58;;;1.40;99.90;;;;;;4950835;29;20227;-83
2022/03/03 01:07:43;;;;;;;41.28;24.88;;;1.40;99.90;;;;;;4949803;29;20211;-83
2022/03/03 01:10:11;;;;;;;33.08;22.10;;;1.50;99.90;;;;;;4951447;29;20221;-83
2022/03/03 01:12:38;;;;;;;44.13;25.83;;;1.40;99.90;;;;;;4954159;29;20230;-83
2022/03/03 01:15:10;;;;;;;34.08;25.42;;;1.40;1.00;;;;;;4959940;29;20674;-84
2022/03/03 01:17:37;;;;;;;36.63;25.05;;;1.40;1.00;;;;;;4960889;29;20258;-84
2022/03/03 01:20:05;;;;;;;43.17;25.60;;;1.40;99.90;;;;;;4960417;29;20708;-83
2022/03/03 01:22:31;;;;;;;38.63;24.88;;;1.60;1.00;;;;;;4959267;29;20247;-85
2022/03/03 01:24:58;;;;;;;44.38;25.92;;;1.60;1.00;;;;;;4959653;29;20237;-83
2022/03/03 01:27:25;;;;;;;39.30;23.42;;;1.70;99.90;;;;;;4960005;29;20214;-84
2022/03/03 01:29:52;;;;;;;42.63;26.33;;;1.70;99.90;;;;;;4957548;29;20218;-84
2022/03/03 01:32:20;;;;;;;39.10;25.48;;;1.70;1.00;;;;;;4956058;29;20677;-85
2022/03/03 01:34:47;;;;;;;42.47;26.45;;;1.70;1.00;;;;;;4956117;29;20207;-84
2022/03/03 01:37:13;;;;;;;41.08;27.42;;;1.70;99.90;;;;;;4953341;29;20304;-83
2022/03/03 01:39:40;;;;;;;40.20;24.85;;;1.70;99.90;;;;;;4953940;29;20214;-83
2022/03/03 01:42:08;;;;;;;43.75;25.13;;;1.60;99.90;;;;;;4956733;29;20238;-84
2022/03/03 01:44:35;;;;;;;40.33;24.98;;;1.60;99.90;;;;;;4957057;29;20254;-84
2022/03/03 01:47:02;;;;;;;40.88;25.33;;;;;;;;;;4956617;29;20218;-84
2022/03/03 01:49:30;;;;;;;35.60;25.70;;;1.50;99.90;;;;;;4951557;29;20207;-83
2022/03/03 01:51:56;;;;;;;35.97;24.27;;;2.30;99.90;;;;;;4950266;29;20257;-82
2022/03/03 01:54:23;;;;;;;42.42;26.50;;;1.50;99.90;;;;;;4949025;29;20578;-85
2022/03/03 01:56:50;;;;;;;41.28;28.33;;;1.50;1.00;;;;;;4950261;29;20207;-84
2022/03/03 01:59:17;;;;;;;46.97;28.40;;;;;;;;;;4953073;29;20207;-83
2022/03/03 02:01:44;;;;;;;45.03;27.55;;;1.50;99.90;;;;;;4959927;29;20223;-84
2022/03/03 02:04:11;;;;;;;44.83;26.13;;;1.60;1.00;;;;;;4960322;29;20227;-84
2022/03/03 02:06:39;;;;;;;43.47;28.55;;;1.60;99.90;;;;;;4960529;28;20207;-84
2022/03/03 02:09:06;;;;;;;42.22;26.58;;;1.50;99.90;;;;;;4961103;29;20207;-83
2022/03/03 02:11:33;;;;;;;42.40;30.85;;;1.50;74.50;;;;;;4961239;28;20217;-85
2022/03/03 02:14:02;;;;;;;46.05;28.83;;;1.60;1.00;;;;;;4953667;29;20211;-84
2022/03/03 02:16:28;;;;;;;42.25;26.02;;;1.40;1.00;;;;;;4953951;29;20215;-83
2022/03/03 02:18:55;;;;;;;35.38;23.85;;;1.40;1.00;;;;;;4954392;29;20211;-83
2022/03/03 02:21:23;;;;;;;45.70;26.90;;;1.40;1.00;;;;;;4958989;28;20233;-83
2022/03/03 02:23:50;;;;;;;41.17;27.55;;;1.40;1.00;;;;;;4949365;29;20206;-82
2022/03/03 02:26:20;;;;;;;51.70;30.85;;;1.70;1.00;;;;;;4949815;29;20227;-82
2022/03/03 02:28:48;;;;;;;47.92;29.30;;;1.50;99.90;;;;;;4950071;29;20278;-83
2022/03/03 02:31:14;;;;;;;47.20;28.80;;;1.40;99.90;;;;;;4949961;29;20222;-83
2022/03/03 02:33:41;;;;;;;43.45;27.63;;;1.40;99.90;;;;;;4961056;28;20191;-83
2022/03/03 02:36:18;;;;;;;44.92;28.27;;;1.60;1.00;;;;;;4961654;28;20199;-83
2022/03/03 02:38:47;;;;;;;44.53;28.80;;;1.70;99.90;;;;;;4959055;28;20195;-83
2022/03/03 02:41:13;;;;;;;44.97;27.80;;;1.70;1.00;;;;;;4951870;29;20207;-83
2022/03/03 02:43:40;;;;;;;47.70;27.38;;;1.50;99.90;;;;;;4951588;29;20203;-83
2022/03/03 02:46:07;;;;;;;55.03;32.72;;;1.40;99.90;;;;;;4951322;29;20227;-83
2022/03/03 02:48:34;;;;;;;41.70;26.75;;;1.20;1.00;;;;;;4956102;29;20195;-84
2022/03/03 02:51:00;;;;;;;49.25;30.05;;;1.40;99.90;;;;;;4950160;29;20207;-84
2022/03/03 02:53:27;;;;;;;51.17;30.55;;;1.40;99.90;;;;;;4948726;29;20214;-83
2022/03/03 02:55:55;;;;;;;46.42;30.42;;;1.60;99.90;;;;;;4948525;29;20203;-83
2022/03/03 02:58:22;;;;;;;49.58;30.42;;;1.60;1.00;;;;;;4948613;29;20658;-83
2022/03/03 03:00:52;;;;;;;54.33;31.85;;;1.50;99.90;;;;;;4950984;29;20207;-83
2022/03/03 03:03:20;;;;;;;49.92;29.70;;;1.50;99.90;;;;;;4949526;29;20227;-84
2022/03/03 03:05:47;;;;;;;51.15;32.03;;;1.30;1.00;;;;;;4950559;29;20223;-83
2022/03/03 03:08:15;;;;;;;53.13;31.77;;;1.10;89.80;;;;;;4948846;29;20211;-83
2022/03/03 03:10:42;;;;;;;51.70;32.63;;;1.40;1.00;;;;;;4950803;29;20203;-84
2022/03/03 03:13:12;;;;;;;49.83;31.75;;;1.40;1.00;;;;;;4952665;29;20230;-84
2022/03/03 03:15:39;;;;;;;44.67;29.20;;;1.30;1.00;;;;;;4952677;29;20266;-84
2022/03/03 03:18:10;;;;;;;43.65;28.90;;;1.30;1.00;;;;;;4943425;29;20229;-84
2022/03/03 03:20:37;;;;;;;48.58;30.20;;;1.20;1.00;;;;;;4944133;29;20207;-84
2022/03/03 03:23:04;;;;;;;45.08;30.33;;;1.30;1.00;;;;;;4946034;29;20226;-84
2022/03/03 03:25:31;;;;;;;55.22;31.00;;;1.30;1.00;;;;;;4945164;29;20223;-83
2022/03/03 03:27:57;;;;;;;51.67;31.63;;;1.30;99.90;;;;;;4948171;29;20211;-85
2022/03/03 03:30:25;;;;;;;54.75;31.98;;;1.20;99.90;;;;;;4949874;29;20204;-83
2022/03/03 03:32:52;;;;;;;48.58;28.70;;;1.40;1.00;;;;;;4949819;29;20242;-85
2022/03/03 03:35:19;;;;;;;49.30;30.60;;;1.30;1.00;;;;;;4950043;29;20231;-86
2022/03/03 03:37:45;;;;;;;50.95;30.85;;;1.20;99.90;;;;;;4950704;29;20203;-84
2022/03/03 03:40:12;;;;;;;47.80;31.30;;;1.00;99.90;;;;;;4958594;28;20207;-84
2022/03/03 03:42:39;;;;;;;44.15;28.38;;;1.00;99.90;;;;;;4953323;29;20227;-84
2022/03/03 03:45:07;;;;;;;51.00;30.35;;;0.90;99.90;;;;;;4952339;29;20216;-84
2022/03/03 03:47:35;;;;;;;51.22;31.08;;;0.90;1.00;;;;;;4951891;29;20240;-84
2022/03/03 03:50:02;;;;;;;41.83;28.10;;;1.00;1.00;;;;;;4951932;29;20222;-84
2022/03/03 03:52:28;;;;;;;54.40;30.80;;;0.90;99.90;;;;;;4950870;29;20645;-85
2022/03/03 03:54:55;;;;;;;47.08;29.58;;;0.90;99.90;;;;;;4950478;29;20226;-85
2022/03/03 03:57:22;;;;;;;41.28;26.70;;;1.10;1.00;;;;;;4950271;29;20211;-85
2022/03/03 03:59:48;;;;;;;41.60;27.95;;;0.90;1.00;;;;;;4950107;29;20270;-84
2022/03/03 04:02:15;;;;;;;48.97;29.73;;;0.90;99.90;;;;;;4949902;29;20245;-84
2022/03/03 04:04:43;;;;;;;52.63;29.92;;;1.00;99.90;;;;;;4950010;29;20203;-84
2022/03/03 04:07:10;;;;;;;49.03;28.60;;;1.00;1.00;;;;;;4952103;29;20211;-84
2022/03/03 04:09:47;;;;;;;46.38;28.63;;;0.90;99.90;;;;;;4955124;28;20194;-84
2022/03/03 04:12:14;;;;;;;45.88;26.08;;;1.40;99.90;;;;;;4958177;29;20229;-83
2022/03/03 04:14:41;;;;;;;54.72;29.55;;;1.10;1.00;;;;;;4957345;29;20218;-82
2022/03/03 04:17:07;;;;;;;38.63;25.13;;;1.10;1.00;;;;;;4957347;29;20246;-83
2022/03/03 04:19:34;;;;;;;44.42;26.67;;;1.10;1.00;;;;;;4956931;29;20255;-84
2022/03/03 04:22:03;;;;;;;48.72;25.95;;;1.20;1.00;;;;;;4953649;29;20227;-84
2022/03/03 04:24:29;;;;;;;40.17;25.35;;;0.80;1.00;;;;;;4954837;29;20238;-83
2022/03/03 04:26:56;;;;;;;47.65;29.42;;;1.00;99.90;;;;;;4956107;29;20207;-84
2022/03/03 04:29:23;;;;;;;41.42;25.95;;;1.00;99.90;;;;;;4960061;28;20194;-83
2022/03/03 04:31:51;;;;;;;43.85;29.88;;;0.90;67.70;;;;;;4959804;28;20294;-84
2022/03/03 04:34:19;;;;;;;46.20;29.08;;;0.50;99.90;;;;;;4960044;28;20188;-83
2022/03/03 04:36:46;;;;;;;40.72;26.80;;;0.80;99.90;;;;;;4960045;28;20207;-83
2022/03/03 04:39:14;;;;;;;42.80;25.17;;;0.10;99.90;;;;;;4959933;28;20206;-83
2022/03/03 04:41:40;;;;;;;36.28;24.23;;;0.40;24.50;;;;;;4957405;28;20223;-84
2022/03/03 04:44:07;;;;;;;37.88;25.15;;;0.30;1.00;;;;;;4945058;29;20215;-84
2022/03/03 04:46:33;;;;;;;40.25;26.55;;;0.20;99.90;;;;;;4944033;29;20208;-84
2022/03/03 04:49:01;;;;;;;41.47;25.15;;;0.10;1.00;;;;;;4945400;29;20214;-85
2022/03/03 04:51:28;;;;;;;47.88;23.60;;;-0.20;99.90;;;;;;4947937;29;20250;-84
2022/03/03 04:53:55;;;;;;;37.22;24.65;;;0.20;1.00;;;;;;4948987;29;20207;-85
2022/03/03 04:56:23;;;;;;;35.38;24.40;;;0.20;15.70;;;;;;4949912;29;20226;-84
2022/03/03 04:58:50;;;;;;;44.33;23.35;;;0.40;1.00;;;;;;4950816;29;20211;-83
2022/03/03 05:01:17;;;;;;;42.35;24.55;;;0.80;99.90;;;;;;4951594;29;20214;-86
2022/03/03 05:03:43;;;;;;;36.33;23.15;;;0.50;1.00;;;;;;4954146;29;20203;-85
2022/03/03 05:06:10;;;;;;;32.50;21.42;;;0.50;1.00;;;;;;4957764;28;20195;-84
2022/03/03 05:08:37;;;;;;;30.05;19.30;;;0.90;22.40;;;;;;4957785;28;20267;-85
2022/03/03 05:11:03;;;;;;;30.45;18.67;;;0.60;1.00;;;;;;4953804;29;20234;-85
2022/03/03 05:13:31;;;;;;;30.90;18.73;;;0.70;1.00;;;;;;4954684;29;20741;-86
2022/03/03 05:15:59;;;;;;;29.65;17.77;;;0.70;1.00;;;;;;4956219;29;20227;-85
2022/03/03 05:18:26;;;;;;;29.15;18.50;;;0.70;99.90;;;;;;4956280;29;20222;-84
2022/03/03 05:20:52;;;;;;;27.85;19.23;;;0.60;1.00;;;;;;4956634;29;20207;-85
2022/03/03 05:23:19;;;;;;;25.00;16.92;;;0.60;99.90;;;;;;4955252;29;20247;-85
2022/03/03 05:25:45;;;;;;;30.15;19.00;;;0.60;99.90;;;;;;4955082;29;20206;-84
2022/03/03 05:28:12;;;;;;;26.48;17.83;;;0.50;99.90;;;;;;4955505;29;20206;-84
2022/03/03 05:30:40;;;;;;;28.38;19.52;;;0.60;99.90;;;;;;4951101;29;20620;-84
2022/03/03 05:33:07;;;;;;;28.80;18.05;;;0.70;99.90;;;;;;4945812;29;20722;-84
2022/03/03 05:35:34;;;;;;;29.48;19.58;;;0.70;99.90;;;;;;4945893;29;20457;-85
2022/03/03 05:38:00;;;;;;;30.27;18.02;;;0.60;99.90;;;;;;4945764;29;20230;-85
2022/03/03 05:40:27;;;;;;;30.17;18.60;;;0.50;1.00;;;;;;4945728;29;20203;-85
2022/03/03 05:42:54;;;;;;;28.13;19.73;;;0.40;40.90;;;;;;4949936;29;20258;-84
2022/03/03 05:45:21;;;;;;;31.83;18.90;;;-0.40;1.00;;;;;;4952102;29;20203;-84
2022/03/03 05:47:49;;;;;;;24.88;17.27;;;0.40;99.90;;;;;;4952484;29;20206;-85
2022/03/03 05:50:16;;;;;;;30.90;19.83;;;0.40;23.30;;;;;;4952829;29;20215;-84
2022/03/03 05:52:43;;;;;;;29.75;20.27;;;0.30;99.90;;;;;;4952512;29;20231;-85
2022/03/03 05:55:10;;;;;;;34.88;19.10;;;1.40;1.00;;;;;;4954073;29;20215;-85
2022/03/03 05:57:41;;;;;;;29.77;18.60;;;0.40;99.90;;;;;;4953384;29;20634;-84
2022/03/03 06:00:12;;;;;;;26.63;17.38;;;0.40;99.90;;;;;;4954782;29;20267;-85
2022/03/03 06:02:41;;;;;;;33.45;19.63;;;0.50;1.00;;;;;;4960423;29;20241;-83
2022/03/03 06:05:09;;;;;;;35.67;19.63;;;0.60;79.20;;;;;;4960520;29;20203;-84
2022/03/03 06:07:45;;;;;;;28.88;17.83;;;0.60;1.00;;;;;;4961124;29;20221;-86
2022/03/03 06:10:14;;;;;;;31.05;20.02;;;0.40;1.00;;;;;;4961243;28;20196;-84
2022/03/03 06:12:45;;;;;;;31.13;18.08;;;0.30;99.90;;;;;;4960772;29;20231;-84
2022/03/03 06:15:14;;;;;;;29.45;19.58;;;0.40;99.90;;;;;;4960729;28;20180;-84
2022/03/03 06:17:42;;;;;;;32.10;18.52;;;0.30;99.90;;;;;;4958476;29;20210;-85
2022/03/03 06:20:12;;;;;;;31.73;19.60;;;0.30;1.00;;;;;;4957360;29;20219;-86
2022/03/03 06:22:39;;;;;;;31.98;18.90;;;0.40;1.00;;;;;;4956246;29;20303;-85
2022/03/03 06:25:06;;;;;;;29.50;18.67;;;0.40;99.90;;;;;;4956242;29;20222;-86
2022/03/03 06:27:34;;;;;;;29.52;19.27;;;0.40;99.90;;;;;;4956516;29;20207;-84
2022/03/03 06:30:01;;;;;;;39.30;20.40;;;0.10;99.90;;;;;;4954953;29;20207;-85
2022/03/03 06:32:27;;;;;;;42.42;23.92;;;0.50;99.90;;;;;;4964355;23;20266;-84
2022/03/03 06:34:54;;;;;;;38.42;23.10;;;0.20;99.90;;;;;;4945597;29;20211;-83
2022/03/03 06:37:22;;;;;;;36.38;22.73;;;0.20;99.90;;;;;;4945232;29;20223;-82
2022/03/03 06:39:48;;;;;;;45.55;23.80;;;0.20;99.90;;;;;;4946143;29;20585;-83
2022/03/03 06:42:15;;;;;;;36.47;21.35;;;0.20;99.90;;;;;;4945649;29;20239;-84
2022/03/03 06:44:42;;;;;;;35.38;21.27;;;0.10;1.00;;;;;;4959302;28;20202;-82
2022/03/03 06:47:08;;;;;;;32.70;20.83;;;0.10;99.90;;;;;;4957121;29;20195;-83
2022/03/03 06:49:36;;;;;;;41.17;21.25;;;0.20;99.90;;;;;;4949878;29;20274;-83
2022/03/03 06:52:07;;;;;;;45.05;23.50;;;0.20;99.90;;;;;;4954664;29;20262;-84
2022/03/03 06:54:36;;;;;;;37.20;21.40;;;0.20;99.90;;;;;;4959012;28;20179;-84
2022/03/03 06:57:04;;;;;;;33.38;19.38;;;0.20;99.90;;;;;;4949717;29;20720;-83
2022/03/03 06:59:33;;;;;;;33.40;21.35;;;0.20;99.90;;;;;;4947004;29;20207;-83
2022/03/03 07:02:00;;;;;;;33.88;23.25;;;0.10;99.90;;;;;;4943691;29;20227;-83
2022/03/03 07:04:29;;;;;;;39.10;20.30;;;0.20;99.90;;;;;;4944316;29;20654;-84
2022/03/03 07:06:56;;;;;;;37.45;21.45;;;0.10;99.90;;;;;;4945574;29;20203;-84
2022/03/03 07:09:23;;;;;;;31.42;21.23;;;0.00;99.90;;;;;;4945993;29;20219;-83
2022/03/03 07:11:51;;;;;;;40.08;23.13;;;0.10;1.00;;;;;;4946202;29;20250;-82
2022/03/03 07:14:19;;;;;;;28.52;19.58;;;0.00;1.00;;;;;;4955713;29;20239;-84
2022/03/03 07:16:47;;;;;;;31.55;19.25;;;0.00;1.00;;;;;;4956755;29;20238;-83
2022/03/03 07:19:30;;;;;;;41.78;24.65;;;0.10;1.00;;;;;;4959847;28;20282;-82
2022/03/03 07:22:07;;;;;;;37.72;22.50;;;0.00;1.00;;;;;;4960865;28;20222;-81
2022/03/03 07:24:38;;;;;;;39.28;23.42;;;-0.20;1.00;;;;;;4960398;28;20186;-83
2022/03/03 07:27:08;;;;;;;44.40;23.40;;;-0.40;22.30;;;;;;4960794;28;20203;-80
2022/03/03 07:29:36;;;;;;;37.78;22.27;;;-0.20;5.40;;;;;;4960673;28;20183;-81
2022/03/03 07:32:07;;;;;;;34.67;23.13;;;-0.20;2.90;;;;;;4960163;28;20231;-84
2022/03/03 07:34:35;;;;;;;38.63;22.13;;;0.00;12.40;;;;;;4959053;28;20179;-83
2022/03/03 07:37:05;;;;;;;42.65;26.13;;;-0.30;99.90;;;;;;4947349;29;20223;-83
2022/03/03 07:39:40;;;;;;;45.60;27.25;;;-0.40;86.20;;;;;;4945601;29;20256;-83
2022/03/03 07:42:11;;;;;;;45.63;27.00;;;-0.40;99.90;;;;;;4945570;29;20222;-83
2022/03/03 07:44:37;;;;;;;48.00;25.58;;;-0.70;99.90;;;;;;4944904;29;20199;-84
2022/03/03 07:47:04;;;;;;;51.95;26.17;;;-0.50;99.90;;;;;;4945559;29;20203;-84
2022/03/03 07:49:31;;;;;;;53.72;26.98;;;-0.60;99.90;;;;;;4954676;29;20274;-83
2022/03/03 07:51:58;;;;;;;53.55;28.65;;;-0.50;99.90;;;;;;4951621;29;20675;-84
2022/03/03 07:54:25;;;;;;;45.05;25.73;;;-0.40;99.90;;;;;;4946676;29;20616;-84
2022/03/03 07:56:56;;;;;;;66.30;28.98;;;-0.40;99.90;;;;;;4944983;29;20254;-84
2022/03/03 07:59:29;;;;;;;47.47;28.70;;;-0.60;99.90;;;;;;4944222;29;20284;-84
2022/03/03 08:01:58;;;;;;;49.67;25.13;;;-0.70;99.90;;;;;;4946215;29;20555;-84
2022/03/03 08:04:33;;;;;;;53.05;27.88;;;-0.50;99.90;;;;;;4944668;29;20217;-84
2022/03/03 08:07:05;;;;;;;53.20;27.35;;;-0.60;99.90;;;;;;4947504;29;20532;-83
2022/03/03 08:09:32;;;;;;;60.67;27.95;;;-0.60;99.90;;;;;;4948058;29;20207;-84
2022/03/03 08:12:03;;;;;;;52.45;30.50;;;-0.40;99.90;;;;;;4956997;29;20226;-83
2022/03/03 08:14:32;;;;;;;59.08;29.00;;;-0.30;99.90;;;;;;4947752;29;20192;-82
2022/03/03 08:16:59;;;;;;;58.38;30.63;;;-0.40;99.90;;;;;;4944964;29;20242;-83
2022/03/03 08:19:25;;;;;;;47.58;27.50;;;-0.30;99.90;;;;;;4945124;29;20238;-84
2022/03/03 08:21:52;;;;;;;55.58;29.27;;;-0.30;99.90;;;;;;4944011;29;20230;-83
2022/03/03 08:24:19;;;;;;;55.50;27.00;;;-0.30;99.90;;;;;;4944291;29;20722;-84
2022/03/03 08:26:46;;;;;;;50.53;26.15;;;-0.10;99.90;;;;;;4945833;29;20242;-84
2022/03/03 08:29:14;;;;;;;52.70;27.00;;;-0.10;99.90;;;;;;4945861;29;20211;-84
2022/03/03 08:31:43;;;;;;;53.05;27.77;;;-0.20;99.90;;;;;;4948191;29;20639;-83
2022/03/03 08:34:16;;;;;;;47.55;26.10;;;0.00;99.90;;;;;;4958407;29;20175;-83
2022/03/03 08:36:46;;;;;;;48.95;24.92;;;-0.10;99.90;;;;;;4947498;29;20519;-85
2022/03/03 08:39:15;;;;;;;47.20;25.08;;;0.00;99.90;;;;;;4945865;29;20258;-84
2022/03/03 08:41:43;;;;;;;46.25;25.45;;;-0.10;99.90;;;;;;4945359;29;20227;-84
2022/03/03 08:44:12;;;;;;;44.65;25.13;;;-0.30;99.90;;;;;;4945657;29;20211;-84
2022/03/03 08:46:40;;;;;;;53.25;25.75;;;0.50;99.90;;;;;;4945170;29;20214;-84
2022/03/03 08:49:10;;;;;;;56.95;26.42;;;-0.30;99.90;;;;;;4947931;29;20219;-86
2022/03/03 08:51:38;;;;;;;48.60;24.13;;;-0.10;99.90;;;;;;4947291;29;20302;-84
2022/03/03 08:54:06;;;;;;;47.58;24.73;;;-0.10;99.90;;;;;;4947049;29;20230;-84
2022/03/03 08:56:33;;;;;;;37.40;21.73;;;-0.20;99.90;;;;;;4948004;29;20258;-84
2022/03/03 08:59:00;;;;;;;50.15;25.95;;;-0.10;99.90;;;;;;4947304;29;20245;-84
2022/03/03 09:01:27;;;;;;;44.85;23.45;;;0.20;99.90;;;;;;4947902;29;20207;-85
2022/03/03 09:03:53;;;;;;;50.17;24.48;;;0.10;99.90;;;;;;4947925;29;20206;-84
2022/03/03 09:06:21;;;;;;;41.08;22.15;;;0.00;99.90;;;;;;4947301;29;20265;-84
2022/03/03 09:08:48;;;;;;;41.95;23.85;;;0.00;99.90;;;;;;4947791;29;20218;-84
2022/03/03 09:11:18;;;;;;;43.45;23.30;;;0.20;99.90;;;;;;4947760;29;20211;-84
2022/03/03 09:13:44;;;;;;;48.20;23.30;;;0.30;99.90;;;;;;4950003;29;20326;-84
2022/03/03 09:16:13;;;;;;;43.03;23.38;;;0.30;99.90;;;;;;4949768;29;20216;-84
2022/03/03 09:18:39;;;;;;;42.35;22.20;;;0.20;99.90;;;;;;4948530;29;20708;-84
2022/03/03 09:21:06;;;;;;;51.28;23.60;;;0.20;99.90;;;;;;4948238;29;20207;-86
2022/03/03 09:23:34;;;;;;;41.90;21.50;;;0.30;99.90;;;;;;4948142;29;20290;-84
2022/03/03 09:26:01;;;;;;;48.85;23.63;;;0.30;99.90;;;;;;4946394;29;20238;-85
2022/03/03 09:28:29;;;;;;;50.55;24.20;;;0.20;99.90;;;;;;4949478;29;20199;-84
2022/03/03 09:30:56;;;;;;;48.15;22.60;;;0.40;99.90;;;;;;4957974;29;20214;-81
2022/03/03 09:33:23;;;;;;;42.85;24.23;;;0.30;99.90;;;;;;4948891;29;20257;-84
2022/03/03 09:35:50;;;;;;;51.05;23.00;;;0.20;99.90;;;;;;4950581;29;20207;-84
2022/03/03 09:38:17;;;;;;;51.90;28.27;;;0.20;99.90;;;;;;4948136;29;20223;-83
2022/03/03 09:40:45;;;;;;;42.38;20.88;;;0.20;99.90;;;;;;4951313;29;20215;-85
2022/03/03 09:43:12;;;;;;;43.97;22.58;;;0.20;99.90;;;;;;4956650;29;20235;-84
2022/03/03 09:45:39;;;;;;;34.65;19.55;;;0.40;99.90;;;;;;4957171;29;20211;-84
2022/03/03 09:48:07;;;;;;;34.60;19.85;;;0.70;99.90;;;;;;4955934;29;20203;-84
2022/03/03 09:50:36;;;;;;;37.78;20.58;;;0.80;99.90;;;;;;4955881;29;20211;-83
2022/03/03 09:53:07;;;;;;;34.47;21.35;;;0.70;99.90;;;;;;4951155;29;20259;-85
2022/03/03 09:55:34;;;;;;;38.28;22.08;;;0.70;99.90;;;;;;4948906;29;20274;-85
2022/03/03 09:58:02;;;;;;;38.72;20.52;;;0.50;99.90;;;;;;4961708;28;20238;-83
2022/03/03 10:00:33;;;;;;;47.22;23.80;;;0.60;99.90;;;;;;4961578;28;20187;-81
2022/03/03 10:03:03;;;;;;;43.15;21.25;;;0.50;99.90;;;;;;4962485;28;20211;-81
2022/03/03 10:05:34;;;;;;;40.78;20.65;;;0.50;99.90;;;;;;4961619;28;20190;-83
2022/03/03 10:08:02;;;;;;;35.88;19.67;;;0.60;99.90;;;;;;4961583;28;20191;-82
2022/03/03 10:10:29;;;;;;;44.85;21.75;;;0.50;99.90;;;;;;4962202;28;20195;-82
2022/03/03 10:12:58;;;;;;;45.88;25.88;;;0.70;99.90;;;;;;4962094;28;20208;-83
2022/03/03 10:15:30;;;;;;;35.38;20.65;;;0.70;99.90;;;;;;4959389;29;20203;-85
2022/03/03 10:18:03;;;;;;;32.42;18.50;;;0.90;99.90;;;;;;4954134;29;20315;-85
2022/03/03 10:20:35;;;;;;;32.70;18.20;;;1.10;99.90;;;;;;4948893;29;20202;-85
2022/03/03 10:23:06;;;;;;;36.45;19.25;;;1.00;99.90;;;;;;4949767;29;20710;-84
2022/03/03 10:25:34;;;;;;;37.35;18.25;;;1.20;99.90;;;;;;4949172;29;20199;-84
2022/03/03 10:28:12;;;;;;;33.95;17.75;;;0.90;99.90;;;;;;4948327;29;20238;-84
2022/03/03 10:30:53;;;;;;;26.00;16.10;;;1.20;99.90;;;;;;4949682;29;20188;-84
2022/03/03 10:33:21;;;;;;;37.97;16.10;;;1.30;99.90;;;;;;4949242;29;20254;-84
2022/03/03 10:36:03;;;;;;;32.40;16.38;;;1.10;99.90;;;;;;4946554;29;20287;-85
2022/03/03 10:38:31;;;;;;;32.85;15.50;;;1.00;99.90;;;;;;4949254;29;20227;-84
2022/03/03 10:40:58;;;;;;;37.70;17.13;;;0.80;99.90;;;;;;4947237;29;20262;-84
2022/03/03 10:43:24;;;;;;;31.15;15.05;;;1.00;99.90;;;;;;4948903;29;20656;-83
2022/03/03 10:45:57;;;;;;;24.55;13.40;;;1.30;99.90;;;;;;4960582;28;20219;-84
2022/03/03 10:48:26;;;;;;;29.38;13.82;;;1.40;99.90;;;;;;4957542;29;20247;-84
2022/03/03 10:50:55;;;;;;;26.48;13.80;;;1.50;99.90;;;;;;4949625;28;20209;-83
2022/03/03 10:53:30;;;;;;;34.30;15.70;;;1.40;99.90;;;;;;4949861;29;20227;-85
2022/03/03 10:56:04;;;;;;;28.13;13.82;;;1.30;99.90;;;;;;4958601;29;20191;-84
2022/03/03 10:58:44;;;;;;;29.70;13.88;;;1.20;99.90;;;;;;4959916;29;20214;-82
2022/03/03 11:01:12;;;;;;;30.20;12.90;;;1.80;99.90;;;;;;4959465;29;20195;-85
2022/03/03 11:03:40;;;;;;;25.92;13.23;;;1.50;99.90;;;;;;4950331;29;20258;-84
2022/03/03 11:06:07;;;;;;;22.60;11.30;;;1.60;99.90;;;;;;4948464;29;20215;-85
2022/03/03 11:08:35;;;;;;;30.33;12.68;;;1.50;99.90;;;;;;4957417;29;20202;-85
2022/03/03 11:11:02;;;;;;;33.35;12.68;;;1.40;99.90;;;;;;4952297;29;20210;-84
2022/03/03 11:13:29;;;;;;;28.33;14.02;;;1.30;99.90;;;;;;4947790;29;20238;-84
2022/03/03 11:15:57;;;;;;;24.33;12.30;;;1.30;99.90;;;;;;4947049;29;20211;-84
2022/03/03 11:18:25;;;;;;;23.08;12.40;;;1.40;99.90;;;;;;4947673;29;20223;-83
2022/03/03 11:20:52;;;;;;;22.80;11.32;;;1.20;99.90;;;;;;4947651;29;20239;-85
2022/03/03 11:23:20;;;;;;;24.42;11.98;;;1.30;99.90;;;;;;4947729;29;20223;-83
2022/03/03 11:25:50;;;;;;;27.05;11.95;;;1.30;99.90;;;;;;4946902;29;20213;-83
2022/03/03 11:28:18;;;;;;;22.45;10.90;;;1.30;99.90;;;;;;4948627;29;20227;-84
2022/03/03 11:30:46;;;;;;;24.50;13.48;;;1.30;99.90;;;;;;4948422;29;20686;-84
2022/03/03 11:33:26;;;;;;;26.38;14.25;;;1.30;99.90;;;;;;4953071;29;20241;-83
2022/03/03 11:35:56;;;;;;;29.63;12.80;;;1.40;99.90;;;;;;4958975;28;20266;-82
2022/03/03 11:38:25;;;;;;;35.63;17.00;;;1.50;99.90;;;;;;4960351;28;20259;-84
2022/03/03 11:40:54;;;;;;;22.63;12.18;;;1.90;99.90;;;;;;4960643;28;20293;-83
2022/03/03 11:43:22;;;;;;;19.90;9.70;;;1.60;99.90;;;;;;4959969;28;20225;-84
2022/03/03 11:45:51;;;;;;;26.13;10.18;;;1.40;99.90;;;;;;4960691;28;20242;-83
2022/03/03 11:48:20;;;;;;;26.73;14.55;;;0.30;99.90;;;;;;4960625;28;20180;-81
2022/03/03 11:50:50;;;;;;;27.15;13.65;;;1.50;99.90;;;;;;4960362;28;20238;-82
2022/03/03 11:53:23;;;;;;;23.15;11.63;;;2.00;99.90;;;;;;4958931;28;20219;-82
2022/03/03 11:55:52;;;;;;;20.35;10.52;;;1.40;99.90;;;;;;4957317;29;20223;-84
2022/03/03 11:58:21;;;;;;;22.88;11.68;;;1.50;99.90;;;;;;4952998;29;20230;-84
2022/03/03 12:01:05;;;;;;;20.20;10.90;;;1.60;99.90;;;;;;4952211;29;20201;-84
2022/03/03 12:03:33;;;;;;;21.83;11.68;;;1.90;99.90;;;;;;4952489;29;20238;-83
2022/03/03 12:06:09;;;;;;;15.15;9.05;;;1.90;99.90;;;;;;4951370;29;20278;-84
2022/03/03 12:08:37;;;;;;;16.30;8.73;;;2.10;99.90;;;;;;4958161;28;20203;-84
2022/03/03 12:11:06;;;;;;;15.27;9.52;;;2.00;99.90;;;;;;4953557;29;20209;-84
2022/03/03 12:13:34;;;;;;;22.38;10.55;;;2.00;99.90;;;;;;4952493;29;20290;-83
2022/03/03 12:16:22;;;;;;;21.48;10.55;;;2.00;99.90;;;;;;4951267;29;20211;-85
2022/03/03 12:18:51;;;;;;;18.52;9.85;;;1.80;99.90;;;;;;4952378;29;20221;-84
2022/03/03 12:21:31;;;;;;;21.10;9.43;;;1.60;99.90;;;;;;4953179;29;20219;-84
2022/03/03 12:24:33;;;;;;;18.20;9.43;;;1.90;99.90;;;;;;4955139;29;20191;-85
2022/03/03 12:27:08;;;;;;;19.48;10.82;;;1.60;99.90;;;;;;4963843;28;20218;-82
2022/03/03 12:29:37;;;;;;;19.48;10.05;;;1.80;99.90;;;;;;4963205;29;20194;-86
2022/03/03 12:32:36;;;;;;;19.20;9.45;;;2.40;99.90;;;;;;4973437;23;20246;-85
2022/03/03 12:35:09;;;;;;;14.32;8.80;;;2.20;99.90;;;;;;4954047;29;20231;-84
2022/03/03 12:37:45;;;;;;;14.95;9.45;;;2.30;99.90;;;;;;4954360;29;20206;-86
2022/03/03 12:40:14;;;;;;;17.38;8.98;;;2.00;68.60;;;;;;4955399;29;20195;-85
2022/03/03 12:42:43;;;;;;;17.42;10.60;;;2.10;99.90;;;;;;4955729;29;20234;-84
2022/03/03 12:45:13;;;;;;;20.95;8.48;;;2.20;99.90;;;;;;4957670;29;20206;-84